createdAt,value
2018-01-18T00:01:15.983Z,15.00
2018-01-18T00:03:44.233Z,10.90
2018-01-18T00:06:12.499Z,10.40
2018-01-18T00:08:40.792Z,10.60
2018-01-18T00:11:09.843Z,16.20
2018-01-18T00:13:38.423Z,19.73
2018-01-18T00:16:06.668Z,14.87
2018-01-18T00:18:35.154Z,14.00
2018-01-18T00:21:04.202Z,13.27
2018-01-18T00:23:32.444Z,17.20
2018-01-18T00:26:01.526Z,13.17
2018-01-18T00:28:30.640Z,14.13
2018-01-18T00:30:58.902Z,16.63
2018-01-18T00:33:28.086Z,13.27
2018-01-18T00:35:56.374Z,18.97
2018-01-18T00:38:24.652Z,16.63
2018-01-18T00:40:52.991Z,13.37
2018-01-18T00:43:21.249Z,12.10
2018-01-18T00:45:49.536Z,13.40
2018-01-18T00:48:17.827Z,14.87
2018-01-18T00:50:46.131Z,12.93
2018-01-18T00:53:14.625Z,14.57
2018-01-18T00:55:42.920Z,12.87
2018-01-18T00:58:11.997Z,16.07
2018-01-18T01:00:40.320Z,15.90
2018-01-18T01:03:08.604Z,16.77
2018-01-18T01:05:36.958Z,18.10
2018-01-18T01:08:06.055Z,17.20
2018-01-18T01:10:34.470Z,14.47
2018-01-18T01:13:02.736Z,21.10
2018-01-18T01:15:31.343Z,15.80
2018-01-18T01:18:00.402Z,15.23
2018-01-18T01:20:29.488Z,19.43
2018-01-18T01:22:57.729Z,15.27
2018-01-18T01:25:25.976Z,19.90
2018-01-18T01:27:54.272Z,14.67
2018-01-18T01:30:22.509Z,13.80
2018-01-18T01:32:51.728Z,15.53
2018-01-18T01:35:20.001Z,17.10
2018-01-18T01:37:48.249Z,20.23
2018-01-18T01:40:16.580Z,21.67
2018-01-18T01:42:44.866Z,14.90
2018-01-18T01:45:13.136Z,16.60
2018-01-18T01:47:41.377Z,19.80
2018-01-18T01:50:10.412Z,14.73
2018-01-18T01:52:38.652Z,19.97
2018-01-18T01:55:07.681Z,18.07
2018-01-18T01:57:35.981Z,21.13
2018-01-18T02:00:04.265Z,19.70
2018-01-18T02:02:32.588Z,16.60
2018-01-18T02:05:00.933Z,18.37
2018-01-18T02:07:29.164Z,21.97
2018-01-18T02:09:57.428Z,21.67
2018-01-18T02:12:25.804Z,16.03
2018-01-18T02:14:54.041Z,19.67
2018-01-18T02:17:22.308Z,20.57
2018-01-18T02:19:50.687Z,18.10
2018-01-18T02:22:18.932Z,19.23
2018-01-18T02:24:47.200Z,20.33
2018-01-18T02:27:15.576Z,19.30
2018-01-18T02:29:44.044Z,18.97
2018-01-18T02:32:12.280Z,18.07
2018-01-18T02:34:40.585Z,19.03
2018-01-18T02:37:08.828Z,19.37
2018-01-18T02:39:37.857Z,26.13
2018-01-18T02:42:06.129Z,16.73
2018-01-18T02:44:35.182Z,17.83
2018-01-18T02:47:03.408Z,16.13
2018-01-18T02:49:31.724Z,20.50
2018-01-18T02:52:00.060Z,15.17
2018-01-18T02:54:29.044Z,13.67
2018-01-18T02:56:58.147Z,15.53
2018-01-18T02:59:26.464Z,26.13
2018-01-18T03:01:54.797Z,18.70
2018-01-18T03:04:23.146Z,14.60
2018-01-18T03:06:51.428Z,20.27
2018-01-18T03:09:19.690Z,18.53
2018-01-18T03:11:47.977Z,18.97
2018-01-18T03:14:16.213Z,12.07
2018-01-18T03:16:44.458Z,14.13
2018-01-18T03:19:12.730Z,11.20
2018-01-18T03:21:42.280Z,15.80
2018-01-18T03:24:10.524Z,17.63
2018-01-18T03:26:38.788Z,10.10
2018-01-18T03:29:07.844Z,10.10
2018-01-18T03:31:36.013Z,13.50
2018-01-18T03:34:04.372Z,12.10
2018-01-18T03:36:32.704Z,15.43
2018-01-18T03:39:01.696Z,13.67
2018-01-18T03:41:30.779Z,9.90
2018-01-18T03:43:59.025Z,11.60
2018-01-18T03:46:27.252Z,9.80
2018-01-18T03:48:56.289Z,17.60
2018-01-18T03:51:24.538Z,15.33
2018-01-18T03:53:52.986Z,15.80
2018-01-18T03:56:21.399Z,12.57
2018-01-18T03:58:49.660Z,13.10
2018-01-18T04:01:18.712Z,12.30
2018-01-18T04:03:47.188Z,11.67
2018-01-18T04:06:15.468Z,12.77
2018-01-18T04:08:43.706Z,11.00
2018-01-18T04:11:12.069Z,12.37
2018-01-18T04:13:40.325Z,10.47
2018-01-18T04:16:08.817Z,10.90
2018-01-18T04:18:38.087Z,12.57
2018-01-18T04:21:06.345Z,10.40
2018-01-18T04:23:34.768Z,12.43
2018-01-18T04:26:03.856Z,13.83
2018-01-18T04:28:32.712Z,10.10
2018-01-18T04:31:01.292Z,12.87
2018-01-18T04:33:29.647Z,11.07
2018-01-18T04:35:57.869Z,10.43
2018-01-18T04:38:26.111Z,10.93
2018-01-18T04:40:55.609Z,10.53
2018-01-18T04:43:23.878Z,11.70
2018-01-18T04:45:52.155Z,11.47
2018-01-18T04:48:20.434Z,11.50
2018-01-18T04:50:48.672Z,11.50
2018-01-18T04:53:17.937Z,12.73
2018-01-18T04:55:46.256Z,11.43
2018-01-18T04:58:15.252Z,10.60
2018-01-18T05:00:44.269Z,11.07
2018-01-18T05:03:13.784Z,12.60
2018-01-18T05:05:42.040Z,10.37
2018-01-18T05:08:10.300Z,10.83
2018-01-18T05:10:39.380Z,11.10
2018-01-18T05:13:07.838Z,12.10
2018-01-18T05:15:36.304Z,10.70
2018-01-18T05:18:04.704Z,11.87
2018-01-18T05:20:33.002Z,10.63
2018-01-18T05:23:01.261Z,10.60
2018-01-18T05:25:29.814Z,11.53
2018-01-18T05:27:58.057Z,10.57
2018-01-18T05:30:27.057Z,10.00
2018-01-18T05:32:55.336Z,10.03
2018-01-18T05:35:23.609Z,9.67
2018-01-18T05:37:51.870Z,10.00
2018-01-18T05:40:21.033Z,10.33
2018-01-18T05:42:49.436Z,10.10
2018-01-18T05:45:17.701Z,9.50
2018-01-18T05:47:45.980Z,10.57
2018-01-18T05:50:14.205Z,9.87
2018-01-18T05:52:42.444Z,9.40
2018-01-18T05:55:10.708Z,9.00
2018-01-18T05:57:38.937Z,8.97
2018-01-18T06:00:07.189Z,8.87
2018-01-18T06:02:36.295Z,9.43
2018-01-18T06:05:05.277Z,10.07
2018-01-18T06:07:34.350Z,10.23
2018-01-18T06:10:02.632Z,9.50
2018-01-18T06:12:31.645Z,9.40
2018-01-18T06:14:59.956Z,9.83
2018-01-18T06:17:28.232Z,9.67
2018-01-18T06:19:56.469Z,9.30
2018-01-18T06:22:25.464Z,10.20
2018-01-18T06:24:53.720Z,9.07
2018-01-18T06:27:22.064Z,8.60
2018-01-18T06:29:50.298Z,9.00
2018-01-18T06:32:18.631Z,9.50
2018-01-18T06:34:46.861Z,9.60
2018-01-18T06:37:15.890Z,8.50
2018-01-18T06:39:44.192Z,9.33
2018-01-18T06:42:12.413Z,9.67
2018-01-18T06:44:41.417Z,10.10
2018-01-18T06:47:09.702Z,9.23
2018-01-18T06:49:38.845Z,9.50
2018-01-18T06:52:07.119Z,9.30
2018-01-18T06:54:35.423Z,9.23
2018-01-18T06:57:03.669Z,9.50
2018-01-18T06:59:31.898Z,9.13
2018-01-18T07:02:00.142Z,8.97
2018-01-18T07:04:28.375Z,8.97
2018-01-18T07:06:56.604Z,9.07
2018-01-18T07:09:25.610Z,8.93
2018-01-18T07:11:54.628Z,9.27
2018-01-18T07:14:22.913Z,8.60
2018-01-18T07:16:51.277Z,9.40
2018-01-18T07:19:19.520Z,8.93
2018-01-18T07:21:48.548Z,9.27
2018-01-18T07:24:16.822Z,8.80
2018-01-18T07:26:45.802Z,8.70
2018-01-18T07:29:14.110Z,9.40
2018-01-18T07:31:42.459Z,8.53
2018-01-18T07:34:10.777Z,8.50
2018-01-18T07:36:39.026Z,8.83
2018-01-18T07:39:07.300Z,8.30
2018-01-18T07:41:35.672Z,7.97
2018-01-18T07:44:03.873Z,8.07
2018-01-18T07:46:32.213Z,8.97
2018-01-18T07:49:01.205Z,8.63
2018-01-18T07:51:30.264Z,8.47
2018-01-18T07:53:59.621Z,8.70
2018-01-18T07:56:27.873Z,8.53
2018-01-18T07:58:56.931Z,8.30
2018-01-18T08:01:27.621Z,8.33
2018-01-18T08:04:12.734Z,8.53
2018-01-18T08:06:40.972Z,9.50
2018-01-18T08:09:09.207Z,8.50
2018-01-18T08:11:37.671Z,8.80
2018-01-18T08:14:05.956Z,8.40
2018-01-18T08:16:34.189Z,8.23
2018-01-18T08:19:02.631Z,8.50
2018-01-18T08:21:31.526Z,7.80
2018-01-18T08:23:59.728Z,7.77
2018-01-18T08:26:27.968Z,7.70
2018-01-18T08:28:56.993Z,8.10
2018-01-18T08:31:25.236Z,8.03
2018-01-18T08:36:20.364Z,8.10
2018-01-18T08:38:48.584Z,8.20
2018-01-18T08:41:16.857Z,8.30
2018-01-18T08:43:45.139Z,7.93
2018-01-18T08:46:13.380Z,8.43
2018-01-18T08:48:42.404Z,8.33
2018-01-18T08:51:10.695Z,8.30
2018-01-18T08:53:38.930Z,8.13
2018-01-18T08:56:07.257Z,8.60
2018-01-18T08:58:35.629Z,8.53
2018-01-18T09:01:04.778Z,8.13
2018-01-18T09:03:33.773Z,8.60
2018-01-18T09:06:02.048Z,8.50
2018-01-18T09:08:31.040Z,7.73
2018-01-18T09:10:59.270Z,8.50
2018-01-18T09:13:27.517Z,8.20
2018-01-18T09:15:55.744Z,8.30
2018-01-18T09:18:24.021Z,8.30
2018-01-18T09:20:52.316Z,7.73
2018-01-18T09:23:21.312Z,8.20
2018-01-18T09:25:50.310Z,8.30
2018-01-18T09:28:19.400Z,8.23
2018-01-18T09:30:48.396Z,8.13
2018-01-18T09:33:16.676Z,7.60
2018-01-18T09:35:44.953Z,8.20
2018-01-18T09:38:13.257Z,8.67
2018-01-18T09:40:41.476Z,8.63
2018-01-18T09:43:10.574Z,8.50
2018-01-18T09:45:39.204Z,8.30
2018-01-18T09:48:07.432Z,8.67
2018-01-18T09:50:35.736Z,8.37
2018-01-18T09:53:04.046Z,8.40
2018-01-18T09:55:32.280Z,8.13
2018-01-18T09:58:01.301Z,8.30
2018-01-18T10:00:29.587Z,8.27
2018-01-18T10:02:57.868Z,8.70
2018-01-18T10:05:26.213Z,8.37
2018-01-18T10:07:55.381Z,8.83
2018-01-18T10:10:23.721Z,8.23
2018-01-18T10:12:52.258Z,8.53
2018-01-18T10:15:21.250Z,8.47
2018-01-18T10:17:50.243Z,7.97
2018-01-18T10:20:19.320Z,8.53
2018-01-18T10:22:47.689Z,8.20
2018-01-18T10:25:15.936Z,7.97
2018-01-18T10:27:44.235Z,7.80
2018-01-18T10:30:12.473Z,7.83
2018-01-18T10:32:40.940Z,7.57
2018-01-18T10:35:10.240Z,7.57
2018-01-18T10:37:38.611Z,7.97
2018-01-18T10:40:06.940Z,7.60
2018-01-18T10:42:35.295Z,7.33
2018-01-18T10:45:03.847Z,7.30
2018-01-18T10:47:32.949Z,8.00
2018-01-18T10:50:02.187Z,7.73
2018-01-18T10:52:30.580Z,7.40
2018-01-18T10:54:58.893Z,7.80
2018-01-18T10:57:27.164Z,7.23
2018-01-18T10:59:55.416Z,7.70
2018-01-18T11:02:23.628Z,7.87
2018-01-18T11:04:52.647Z,7.90
2018-01-18T11:07:21.645Z,7.43
2018-01-18T11:09:49.876Z,7.50
2018-01-18T11:12:18.160Z,7.60
2018-01-18T11:14:47.205Z,8.00
2018-01-18T11:17:15.461Z,7.67
2018-01-18T11:19:43.744Z,7.37
2018-01-18T11:22:14.726Z,7.40
2018-01-18T11:24:43.184Z,7.53
2018-01-18T11:27:11.441Z,8.23
2018-01-18T11:29:39.726Z,7.50
2018-01-18T11:32:08.025Z,7.33
2018-01-18T11:34:36.285Z,7.40
2018-01-18T11:37:04.612Z,7.60
2018-01-18T11:39:33.603Z,7.40
2018-01-18T11:42:02.692Z,7.10
2018-01-18T11:44:31.044Z,7.17
2018-01-18T11:46:59.368Z,7.20
2018-01-18T11:49:28.374Z,6.90
2018-01-18T11:51:56.834Z,7.00
2018-01-18T11:54:25.355Z,7.23
2018-01-18T11:56:53.620Z,7.10
2018-01-18T11:59:21.930Z,7.10
2018-01-18T12:01:50.373Z,7.30
2018-01-18T12:04:19.421Z,7.27
2018-01-18T12:06:47.688Z,7.10
2018-01-18T12:09:15.918Z,7.50
2018-01-18T12:11:44.249Z,7.33
2018-01-18T12:14:12.481Z,6.63
2018-01-18T12:16:41.196Z,7.37
2018-01-18T12:19:09.742Z,7.20
2018-01-18T12:21:37.992Z,7.27
2018-01-18T12:24:07.036Z,7.17
2018-01-18T12:26:35.388Z,6.97
2018-01-18T12:29:04.530Z,6.70
2018-01-18T12:31:32.813Z,7.23
2018-01-18T12:34:01.141Z,6.83
2018-01-18T12:36:29.378Z,7.50
2018-01-18T12:38:57.873Z,6.57
2018-01-18T12:41:26.132Z,6.90
2018-01-18T12:43:54.382Z,7.50
2018-01-18T12:46:22.640Z,7.30
2018-01-18T12:48:51.012Z,6.50
2018-01-18T12:51:19.259Z,7.30
2018-01-18T12:53:47.507Z,7.57
2018-01-18T12:56:15.776Z,6.80
2018-01-18T12:58:44.076Z,6.90
2018-01-18T13:01:12.424Z,6.53
2018-01-18T13:03:40.829Z,6.80
2018-01-18T13:06:09.217Z,7.10
2018-01-18T13:08:37.448Z,7.33
2018-01-18T13:11:06.055Z,6.97
2018-01-18T13:13:34.362Z,7.07
2018-01-18T13:16:03.393Z,7.10
2018-01-18T13:18:31.689Z,7.43
2018-01-18T13:20:59.967Z,7.00
2018-01-18T13:23:28.193Z,7.03
2018-01-18T13:25:56.440Z,7.57
2018-01-18T13:28:24.721Z,6.83
2018-01-18T13:30:52.992Z,7.10
2018-01-18T13:33:21.374Z,6.93
2018-01-18T13:35:49.637Z,7.00
2018-01-18T13:38:17.900Z,7.40
2018-01-18T13:40:47.486Z,6.87
2018-01-18T13:43:15.790Z,7.53
2018-01-18T13:45:45.834Z,7.27
2018-01-18T13:48:14.089Z,6.70
2018-01-18T13:50:43.088Z,7.33
2018-01-18T13:53:12.177Z,7.40
2018-01-18T13:55:41.288Z,7.43
2018-01-18T13:58:09.517Z,7.50
2018-01-18T14:00:37.917Z,7.20
2018-01-18T14:03:06.939Z,8.00
2018-01-18T14:05:35.198Z,7.10
2018-01-18T14:08:04.182Z,7.60
2018-01-18T14:10:33.278Z,7.70
2018-01-18T14:13:01.735Z,7.50
2018-01-18T14:15:30.087Z,7.73
2018-01-18T14:17:58.319Z,7.67
2018-01-18T14:20:26.560Z,7.50
2018-01-18T14:22:54.885Z,7.20
2018-01-18T14:25:23.907Z,7.53
2018-01-18T14:27:52.177Z,7.33
2018-01-18T14:30:20.409Z,7.80
2018-01-18T14:32:49.449Z,8.03
2018-01-18T14:35:17.674Z,7.33
2018-01-18T14:37:45.973Z,7.50
2018-01-18T14:40:14.270Z,7.80
2018-01-18T14:42:43.236Z,7.57
2018-01-18T14:45:12.272Z,7.87
2018-01-18T14:47:40.542Z,7.67
2018-01-18T14:50:08.765Z,8.17
2018-01-18T14:52:37.008Z,11.40
2018-01-18T14:55:05.281Z,7.60
2018-01-18T14:57:33.569Z,7.87
2018-01-18T15:00:02.048Z,7.97
2018-01-18T15:02:30.392Z,7.73
2018-01-18T15:04:58.624Z,7.93
2018-01-18T15:07:26.904Z,10.07
2018-01-18T15:09:55.160Z,10.87
2018-01-18T15:12:23.487Z,9.73
2018-01-18T15:14:51.733Z,10.13
2018-01-18T15:17:20.011Z,8.50
2018-01-18T15:19:48.297Z,8.23
2018-01-18T15:22:17.289Z,7.77
2018-01-18T15:24:46.645Z,8.37
2018-01-18T15:27:14.922Z,9.47
2018-01-18T15:29:43.196Z,9.77
2018-01-18T15:32:11.594Z,8.97
2018-01-18T15:34:39.876Z,10.57
2018-01-18T15:37:08.886Z,8.10
2018-01-18T15:39:37.190Z,8.00
2018-01-18T15:42:06.209Z,8.40
2018-01-18T15:44:34.577Z,8.00
2018-01-18T15:47:02.871Z,8.10
2018-01-18T15:49:32.400Z,8.37
2018-01-18T15:52:01.058Z,8.03
2018-01-18T15:54:29.549Z,7.97
2018-01-18T15:56:57.767Z,8.13
2018-01-18T15:59:26.216Z,8.23
2018-01-18T16:01:54.540Z,8.23
2018-01-18T16:04:22.832Z,7.70
2018-01-18T16:06:51.914Z,8.10
2018-01-18T16:09:20.201Z,8.13
2018-01-18T16:11:49.208Z,7.73
2018-01-18T16:14:17.486Z,8.37
2018-01-18T16:16:46.117Z,7.73
2018-01-18T16:19:14.381Z,7.43
2018-01-18T16:21:42.652Z,8.37
2018-01-18T16:24:10.925Z,7.40
2018-01-18T16:26:39.211Z,7.53
2018-01-18T16:29:07.688Z,7.93
2018-01-18T16:31:36.104Z,7.60
2018-01-18T16:34:04.364Z,7.60
2018-01-18T16:36:32.617Z,7.77
2018-01-18T16:39:00.904Z,7.33
2018-01-18T16:41:29.171Z,8.10
2018-01-18T16:43:57.427Z,8.20
2018-01-18T16:46:25.722Z,7.47
2018-01-18T16:48:53.963Z,8.50
2018-01-18T16:51:22.196Z,7.90
2018-01-18T16:53:50.525Z,7.33
2018-01-18T16:56:18.785Z,8.20
2018-01-18T16:58:47.844Z,8.23
2018-01-18T17:01:16.134Z,7.63
2018-01-18T17:03:44.377Z,13.27
2018-01-18T17:06:12.624Z,8.53
2018-01-18T17:08:40.880Z,8.83
2018-01-18T17:11:09.888Z,8.60
2018-01-18T17:13:38.284Z,8.60
2018-01-18T17:16:06.589Z,9.13
2018-01-18T17:18:34.820Z,8.67
2018-01-18T17:21:03.896Z,8.70
2018-01-18T17:23:32.232Z,9.33
2018-01-18T17:26:01.243Z,8.27
2018-01-18T17:28:29.618Z,10.10
2018-01-18T17:33:28.644Z,9.00
2018-01-18T17:35:56.894Z,9.50
2018-01-18T17:38:25.147Z,8.70
2018-01-18T17:40:53.401Z,8.07
2018-01-18T17:43:21.780Z,7.80
2018-01-18T17:45:52.598Z,8.33
2018-01-18T17:48:22.049Z,7.97
2018-01-18T17:50:50.601Z,8.43
2018-01-18T17:53:19.593Z,8.53
2018-01-18T17:55:49.376Z,7.97
2018-01-18T17:58:18.024Z,7.60
2018-01-18T18:00:46.435Z,8.40
2018-01-18T18:03:15.764Z,8.60
2018-01-18T18:05:44.030Z,8.07
2018-01-18T18:08:12.699Z,8.83
2018-01-18T18:10:41.132Z,8.40
2018-01-18T18:13:09.549Z,8.03
2018-01-18T18:15:37.766Z,8.00
2018-01-18T18:18:06.097Z,8.33
2018-01-18T18:20:34.335Z,8.07
2018-01-18T18:23:03.506Z,7.90
2018-01-18T18:25:31.751Z,8.27
2018-01-18T18:28:00.045Z,8.20
2018-01-18T18:30:28.507Z,7.43
2018-01-18T18:32:56.856Z,7.93
2018-01-18T18:35:25.072Z,7.93
2018-01-18T18:37:53.356Z,8.10
2018-01-18T18:40:22.104Z,8.23
2018-01-18T18:42:50.365Z,8.23
2018-01-18T18:45:18.634Z,7.97
2018-01-18T18:47:47.377Z,8.20
2018-01-18T18:50:16.768Z,7.70
2018-01-18T18:52:45.846Z,8.20
2018-01-18T18:55:14.101Z,8.10
2018-01-18T18:57:42.457Z,8.10
2018-01-18T19:00:10.696Z,8.07
2018-01-18T19:02:38.994Z,10.30
2018-01-18T19:05:07.249Z,12.03
2018-01-18T19:07:36.288Z,9.13
2018-01-18T19:10:04.609Z,8.70
2018-01-18T19:12:33.744Z,8.40
2018-01-18T19:15:03.045Z,8.20
2018-01-18T19:17:31.423Z,7.97
2018-01-18T19:19:59.766Z,7.63
2018-01-18T19:22:28.054Z,8.60
2018-01-18T19:24:57.241Z,8.50
2018-01-18T19:27:25.626Z,8.30
2018-01-18T19:29:53.894Z,7.77
2018-01-18T19:32:22.594Z,8.30
2018-01-18T19:34:50.961Z,8.50
2018-01-18T19:37:19.570Z,7.90
2018-01-18T19:39:47.793Z,8.23
2018-01-18T19:42:16.061Z,8.67
2018-01-18T19:44:44.308Z,8.03
2018-01-18T19:47:12.600Z,8.47
2018-01-18T19:49:40.868Z,8.17
2018-01-18T19:52:09.112Z,8.23
2018-01-18T19:54:37.385Z,8.73
2018-01-18T19:57:05.705Z,8.73
2018-01-18T19:59:34.017Z,9.23
2018-01-18T20:02:03.072Z,8.40
2018-01-18T20:04:31.918Z,8.27
2018-01-18T20:07:00.352Z,8.53
2018-01-18T20:09:29.420Z,9.07
2018-01-18T20:11:57.787Z,9.30
2018-01-18T20:14:26.071Z,8.30
2018-01-18T20:16:54.392Z,9.13
2018-01-18T20:19:22.793Z,9.03
2018-01-18T20:21:52.824Z,9.17
2018-01-18T20:24:21.446Z,9.20
2018-01-18T20:26:50.574Z,8.90
2018-01-18T20:29:19.688Z,8.73
2018-01-18T20:31:49.373Z,8.83
2018-01-18T20:34:17.734Z,9.97
2018-01-18T20:36:46.024Z,8.37
2018-01-18T20:39:14.648Z,9.67
2018-01-18T20:41:42.929Z,9.40
2018-01-18T20:44:11.188Z,9.33
2018-01-18T20:46:39.444Z,9.63
2018-01-18T20:49:09.133Z,9.47
2018-01-18T20:51:37.468Z,9.80
2018-01-18T20:54:07.179Z,10.83
2018-01-18T20:56:35.518Z,9.33
2018-01-18T20:59:04.528Z,9.57
2018-01-18T21:01:32.881Z,9.40
2018-01-18T21:04:01.239Z,9.40
2018-01-18T21:06:30.430Z,9.33
2018-01-18T21:08:59.457Z,9.07
2018-01-18T21:11:27.758Z,10.20
2018-01-18T21:13:56.282Z,9.40
2018-01-18T21:16:25.418Z,10.03
2018-01-18T21:18:54.853Z,9.63
2018-01-18T21:21:24.176Z,9.97
2018-01-18T21:23:53.276Z,9.00
2018-01-18T21:26:22.593Z,8.93
2018-01-18T21:28:51.840Z,9.30
2018-01-18T21:31:20.161Z,9.00
2018-01-18T21:33:49.264Z,9.10
2018-01-18T21:36:18.269Z,9.57
2018-01-18T21:38:46.832Z,8.90
2018-01-18T21:41:15.816Z,9.90
2018-01-18T21:43:44.872Z,9.27
2018-01-18T21:46:13.135Z,9.80
2018-01-18T21:48:42.373Z,9.33
2018-01-18T21:51:10.663Z,10.00
2018-01-18T21:53:38.925Z,9.80
2018-01-18T21:56:08.949Z,9.33
2018-01-18T21:58:37.173Z,8.90
2018-01-18T22:01:05.450Z,9.47
2018-01-18T22:03:33.725Z,9.93
2018-01-18T22:06:02.117Z,9.43
2018-01-18T22:08:30.376Z,9.30
2018-01-18T22:10:59.241Z,9.00
2018-01-18T22:13:27.488Z,9.23
2018-01-18T22:15:55.899Z,8.97
2018-01-18T22:18:24.221Z,9.43
2018-01-18T22:20:52.564Z,9.30
2018-01-18T22:23:21.697Z,8.63
2018-01-18T22:25:50.013Z,9.53
2018-01-18T22:28:18.328Z,8.83
2018-01-18T22:30:47.428Z,9.10
2018-01-18T22:33:15.712Z,8.77
2018-01-18T22:35:44.812Z,8.63
2018-01-18T22:38:13.080Z,8.80
2018-01-18T22:40:41.309Z,9.20
2018-01-18T22:43:09.545Z,8.83
2018-01-18T22:45:37.846Z,9.10
2018-01-18T22:48:06.237Z,9.93
2018-01-18T22:50:34.456Z,9.07
2018-01-18T22:53:04.085Z,10.00
2018-01-18T22:55:33.077Z,9.27
2018-01-18T22:58:01.320Z,9.77
2018-01-18T23:00:30.338Z,9.83
2018-01-18T23:02:58.572Z,9.20
2018-01-18T23:05:26.796Z,8.57
2018-01-18T23:07:55.118Z,9.60
2018-01-18T23:10:23.513Z,8.93
2018-01-18T23:12:51.732Z,9.73
2018-01-18T23:15:20.013Z,9.40
2018-01-18T23:17:49.034Z,8.90
2018-01-18T23:20:17.298Z,9.57
2018-01-18T23:22:45.568Z,9.33
2018-01-18T23:25:13.904Z,9.57
2018-01-18T23:27:43.029Z,9.77
2018-01-18T23:30:11.335Z,9.60
2018-01-18T23:32:39.557Z,10.23
2018-01-18T23:35:07.834Z,10.30
2018-01-18T23:37:36.921Z,10.07
2018-01-18T23:40:05.920Z,10.03
2018-01-18T23:42:34.329Z,12.50
2018-01-18T23:45:02.578Z,10.37
2018-01-18T23:47:31.608Z,9.80
2018-01-18T23:50:00.645Z,9.40
2018-01-18T23:52:28.936Z,10.30
2018-01-18T23:54:57.971Z,10.50
2018-01-18T23:57:26.213Z,12.37
2018-01-18T23:59:55.861Z,14.57
